createdAt,value
2017-11-16T00:01:16.515Z,42.25
2017-11-16T00:03:44.032Z,38.85
2017-11-16T00:06:11.601Z,38.33
2017-11-16T00:08:39.120Z,41.45
2017-11-16T00:11:06.631Z,39.35
2017-11-16T00:13:34.555Z,41.28
2017-11-16T00:16:02.072Z,39.55
2017-11-16T00:18:29.595Z,36.95
2017-11-16T00:20:57.161Z,34.75
2017-11-16T00:23:24.678Z,34.70
2017-11-16T00:25:52.759Z,35.95
2017-11-16T00:28:20.325Z,32.83
2017-11-16T00:30:47.845Z,34.80
2017-11-16T00:33:15.360Z,33.38
2017-11-16T00:35:42.914Z,32.55
2017-11-16T00:38:10.435Z,32.50
2017-11-16T00:40:38.184Z,31.30
2017-11-16T00:43:05.776Z,31.98
2017-11-16T00:45:33.296Z,33.20
2017-11-16T00:48:00.807Z,39.15
2017-11-16T00:50:28.379Z,38.90
2017-11-16T00:52:55.895Z,38.92
2017-11-16T00:55:24.177Z,40.12
2017-11-16T00:57:51.740Z,38.17
2017-11-16T01:00:19.252Z,38.75
2017-11-16T01:02:46.767Z,38.80
2017-11-16T01:05:15.096Z,34.65
2017-11-16T01:07:42.987Z,34.75
2017-11-16T01:10:11.088Z,36.63
2017-11-16T01:12:39.153Z,33.05
2017-11-16T01:15:07.315Z,33.45
2017-11-16T01:17:35.632Z,33.88
2017-11-16T01:20:04.198Z,35.55
2017-11-16T01:22:32.140Z,33.58
2017-11-16T01:25:00.423Z,34.75
2017-11-16T01:27:29.056Z,28.38
2017-11-16T01:29:56.577Z,31.17
2017-11-16T01:32:24.196Z,33.13
2017-11-16T01:34:51.804Z,33.80
2017-11-16T01:37:19.322Z,38.38
2017-11-16T01:39:46.836Z,38.00
2017-11-16T01:42:14.400Z,38.25
2017-11-16T01:44:41.920Z,36.72
2017-11-16T01:47:09.863Z,36.75
2017-11-16T01:49:38.443Z,32.53
2017-11-16T01:52:05.956Z,35.45
2017-11-16T01:54:33.951Z,36.85
2017-11-16T01:57:01.786Z,36.17
2017-11-16T01:59:29.299Z,39.15
2017-11-16T02:01:57.113Z,37.55
2017-11-16T02:04:24.635Z,37.33
2017-11-16T02:06:54.083Z,39.50
2017-11-16T02:09:21.671Z,40.38
2017-11-16T02:11:49.208Z,41.95
2017-11-16T02:14:16.750Z,36.60
2017-11-16T02:16:44.291Z,42.55
2017-11-16T02:19:11.804Z,42.42
2017-11-16T02:21:39.312Z,40.12
2017-11-16T02:24:06.879Z,35.72
2017-11-16T02:26:35.125Z,39.92
2017-11-16T02:29:02.656Z,38.40
2017-11-16T02:31:30.279Z,35.10
2017-11-16T02:33:57.792Z,36.33
2017-11-16T02:36:25.323Z,37.85
2017-11-16T02:38:52.918Z,38.25
2017-11-16T02:41:20.427Z,35.50
2017-11-16T02:43:47.944Z,35.00
2017-11-16T02:46:15.524Z,39.47
2017-11-16T02:48:43.803Z,42.95
2017-11-16T02:51:11.580Z,42.75
2017-11-16T02:53:39.157Z,39.97
2017-11-16T02:56:06.852Z,38.42
2017-11-16T02:58:34.365Z,37.05
2017-11-16T03:01:01.933Z,38.95
2017-11-16T03:03:29.452Z,35.83
2017-11-16T03:05:56.982Z,41.37
2017-11-16T03:08:24.532Z,38.70
2017-11-16T03:10:52.052Z,39.47
2017-11-16T03:13:19.568Z,37.95
2017-11-16T03:15:47.127Z,34.95
2017-11-16T03:18:14.645Z,36.10
2017-11-16T03:20:42.203Z,35.50
2017-11-16T03:23:09.712Z,38.65
2017-11-16T03:25:37.240Z,40.05
2017-11-16T03:28:05.084Z,38.40
2017-11-16T03:30:33.326Z,42.72
2017-11-16T03:33:00.840Z,41.70
2017-11-16T03:35:28.412Z,40.22
2017-11-16T03:37:56.104Z,41.33
2017-11-16T03:40:23.620Z,42.65
2017-11-16T03:42:52.145Z,42.28
2017-11-16T03:45:20.096Z,42.90
2017-11-16T03:47:47.616Z,35.88
2017-11-16T03:50:15.196Z,34.55
2017-11-16T03:52:43.294Z,34.63
2017-11-16T03:55:11.208Z,38.38
2017-11-16T03:57:38.696Z,36.75
2017-11-16T04:00:06.620Z,38.80
2017-11-16T04:02:34.402Z,40.97
2017-11-16T04:05:01.989Z,42.95
2017-11-16T04:07:29.510Z,38.58
2017-11-16T04:09:57.844Z,36.78
2017-11-16T04:12:25.455Z,38.95
2017-11-16T04:14:52.967Z,39.90
2017-11-16T04:17:20.484Z,36.10
2017-11-16T04:19:48.343Z,33.95
2017-11-16T04:22:15.856Z,36.95
2017-11-16T04:24:43.386Z,35.55
2017-11-16T04:27:12.256Z,34.25
2017-11-16T04:29:39.813Z,36.17
2017-11-16T04:32:07.331Z,38.00
2017-11-16T04:34:34.872Z,33.95
2017-11-16T04:37:02.901Z,32.10
2017-11-16T04:39:30.501Z,33.70
2017-11-16T04:41:58.014Z,31.45
2017-11-16T04:44:25.528Z,31.52
2017-11-16T04:46:54.358Z,32.50
2017-11-16T04:49:21.905Z,31.05
2017-11-16T04:51:49.428Z,30.23
2017-11-16T04:54:16.992Z,32.88
2017-11-16T04:56:45.013Z,28.95
2017-11-16T04:59:12.532Z,28.17
2017-11-16T05:01:40.109Z,30.70
2017-11-16T05:04:08.105Z,33.72
2017-11-16T05:06:35.668Z,29.00
2017-11-16T05:09:03.247Z,32.13
2017-11-16T05:11:30.764Z,32.47
2017-11-16T05:13:58.793Z,32.95
2017-11-16T05:16:26.368Z,31.52
2017-11-16T05:18:53.883Z,31.10
2017-11-16T05:21:21.395Z,31.98
2017-11-16T05:23:49.510Z,30.35
2017-11-16T05:26:17.019Z,31.65
2017-11-16T05:28:44.526Z,31.48
2017-11-16T05:31:12.104Z,32.83
2017-11-16T05:33:39.616Z,30.50
2017-11-16T05:36:07.128Z,30.75
2017-11-16T05:38:35.061Z,31.00
2017-11-16T05:41:02.867Z,32.00
2017-11-16T05:43:30.488Z,31.17
2017-11-16T05:45:58.253Z,29.00
2017-11-16T05:48:25.767Z,30.12
2017-11-16T05:50:53.284Z,32.70
2017-11-16T05:53:20.857Z,32.15
2017-11-16T05:55:48.389Z,31.62
2017-11-16T05:58:15.912Z,32.72
2017-11-16T06:00:43.480Z,30.12
2017-11-16T06:03:11.012Z,30.58
2017-11-16T06:05:39.614Z,31.98
2017-11-16T06:08:07.208Z,33.33
2017-11-16T06:10:34.727Z,29.75
2017-11-16T06:13:02.242Z,27.08
2017-11-16T06:15:29.791Z,28.48
2017-11-16T06:17:58.104Z,28.48
2017-11-16T06:20:25.640Z,29.48
2017-11-16T06:22:53.204Z,29.05
2017-11-16T06:25:22.108Z,32.45
2017-11-16T06:27:49.716Z,30.90
2017-11-16T06:30:17.244Z,32.30
2017-11-16T06:32:44.820Z,29.27
2017-11-16T06:35:12.336Z,32.88
2017-11-16T06:37:39.942Z,28.30
2017-11-16T06:40:07.658Z,30.73
2017-11-16T06:42:35.200Z,30.33
2017-11-16T06:45:02.733Z,30.15
2017-11-16T06:47:30.964Z,29.67
2017-11-16T06:49:58.489Z,30.67
2017-11-16T06:52:25.995Z,29.85
2017-11-16T06:54:53.601Z,29.27
2017-11-16T06:57:21.124Z,33.08
2017-11-16T06:59:48.667Z,28.85
2017-11-16T07:02:16.240Z,26.58
2017-11-16T07:04:43.792Z,28.55
2017-11-16T07:07:11.312Z,26.10
2017-11-16T07:09:38.881Z,29.05
2017-11-16T07:12:06.392Z,29.08
2017-11-16T07:14:33.912Z,27.23
2017-11-16T07:17:02.256Z,27.60
2017-11-16T07:19:29.776Z,29.77
2017-11-16T07:21:57.288Z,26.23
2017-11-16T07:24:24.873Z,28.80
2017-11-16T07:26:52.401Z,26.30
2017-11-16T07:29:20.579Z,27.17
2017-11-16T07:31:48.155Z,26.30
2017-11-16T07:34:15.674Z,26.92
2017-11-16T07:36:43.206Z,26.37
2017-11-16T07:39:10.790Z,23.65
2017-11-16T07:41:38.311Z,21.52
2017-11-16T07:44:05.840Z,25.00
2017-11-16T07:46:33.416Z,23.45
2017-11-16T07:49:00.924Z,26.60
2017-11-16T07:51:28.435Z,26.05
2017-11-16T07:53:56.008Z,23.17
2017-11-16T07:56:23.534Z,22.80
2017-11-16T07:58:51.061Z,24.63
2017-11-16T08:01:18.609Z,20.95
2017-11-16T08:03:46.128Z,25.33
2017-11-16T08:06:13.410Z,21.12
2017-11-16T08:08:40.992Z,22.25
2017-11-16T08:11:08.507Z,21.90
2017-11-16T08:13:36.017Z,21.02
2017-11-16T08:16:03.564Z,22.87
2017-11-16T08:18:31.097Z,21.60
2017-11-16T08:20:58.696Z,21.37
2017-11-16T08:23:26.416Z,23.10
2017-11-16T08:25:54.048Z,19.07
2017-11-16T08:28:21.590Z,17.40
2017-11-16T08:30:49.136Z,19.53
2017-11-16T08:33:16.657Z,21.08
2017-11-16T08:35:44.168Z,20.50
2017-11-16T08:38:11.746Z,21.17
2017-11-16T08:40:39.572Z,21.55
2017-11-16T08:43:07.084Z,19.83
2017-11-16T08:45:34.656Z,19.67
2017-11-16T08:48:02.169Z,17.00
2017-11-16T08:50:29.677Z,19.60
2017-11-16T08:52:57.256Z,20.03
2017-11-16T08:55:24.768Z,19.70
2017-11-16T08:57:52.273Z,16.57
2017-11-16T09:00:19.840Z,18.43
2017-11-16T09:02:47.348Z,19.17
2017-11-16T09:05:14.865Z,19.33
2017-11-16T09:07:42.437Z,17.90
2017-11-16T09:10:10.004Z,18.97
2017-11-16T09:12:37.512Z,18.10
2017-11-16T09:15:05.081Z,16.77
2017-11-16T09:17:32.589Z,18.47
2017-11-16T09:20:00.094Z,20.53
2017-11-16T09:22:27.647Z,18.83
2017-11-16T09:24:55.159Z,16.33
2017-11-16T09:27:22.668Z,19.23
2017-11-16T09:29:50.240Z,16.80
2017-11-16T09:32:17.736Z,18.10
2017-11-16T09:34:45.244Z,17.80
2017-11-16T09:37:12.813Z,15.80
2017-11-16T09:39:41.088Z,15.90
2017-11-16T09:42:09.367Z,14.50
2017-11-16T09:44:37.704Z,16.10
2017-11-16T09:47:05.212Z,16.50
2017-11-16T09:49:32.740Z,15.80
2017-11-16T09:52:00.305Z,17.37
2017-11-16T09:54:27.893Z,17.63
2017-11-16T09:56:55.400Z,17.90
2017-11-16T09:59:22.900Z,19.50
2017-11-16T10:01:50.470Z,16.70
2017-11-16T10:04:17.977Z,16.73
2017-11-16T10:06:45.489Z,17.70
2017-11-16T10:09:13.055Z,16.23
2017-11-16T10:11:40.569Z,16.43
2017-11-16T10:14:08.080Z,14.60
2017-11-16T10:16:35.646Z,16.90
2017-11-16T10:19:03.158Z,13.43
2017-11-16T10:21:30.718Z,11.70
2017-11-16T10:23:58.280Z,14.03
2017-11-16T10:26:25.784Z,13.23
2017-11-16T10:28:53.297Z,13.00
2017-11-16T10:31:20.855Z,12.60
2017-11-16T10:33:48.356Z,14.60
2017-11-16T10:36:15.868Z,14.97
2017-11-16T10:38:44.205Z,13.00
2017-11-16T10:41:11.709Z,12.77
2017-11-16T10:43:39.212Z,12.83
2017-11-16T10:46:07.706Z,14.80
2017-11-16T10:48:35.212Z,13.07
2017-11-16T10:51:02.967Z,13.63
2017-11-16T10:53:30.536Z,13.70
2017-11-16T10:55:58.850Z,10.70
2017-11-16T10:58:26.361Z,11.73
2017-11-16T11:00:53.926Z,10.80
2017-11-16T11:03:21.436Z,10.90
2017-11-16T11:05:48.961Z,10.23
2017-11-16T11:08:16.573Z,11.10
2017-11-16T11:10:44.109Z,12.17
2017-11-16T11:13:11.622Z,12.00
2017-11-16T11:15:39.180Z,12.40
2017-11-16T11:18:06.683Z,11.37
2017-11-16T11:20:34.189Z,9.33
2017-11-16T11:23:02.419Z,10.30
2017-11-16T11:25:29.940Z,11.17
2017-11-16T11:27:58.232Z,11.60
2017-11-16T11:30:26.559Z,12.50
2017-11-16T11:32:54.073Z,10.27
2017-11-16T11:35:21.593Z,10.70
2017-11-16T11:37:49.168Z,11.10
2017-11-16T11:40:16.686Z,12.50
2017-11-16T11:42:44.193Z,11.83
2017-11-16T11:45:12.629Z,11.60
2017-11-16T11:47:40.139Z,10.60
2017-11-16T11:50:07.653Z,10.50
2017-11-16T11:52:35.213Z,12.70
2017-11-16T11:55:02.728Z,11.50
2017-11-16T11:57:30.244Z,11.70
2017-11-16T11:59:57.805Z,11.53
2017-11-16T12:02:25.308Z,13.63
2017-11-16T12:04:52.812Z,10.83
2017-11-16T12:07:20.360Z,10.13
2017-11-16T12:09:49.356Z,10.93
2017-11-16T12:12:16.942Z,11.80
2017-11-16T12:14:44.548Z,11.20
2017-11-16T12:17:12.060Z,10.00
2017-11-16T12:19:39.567Z,11.23
2017-11-16T12:22:07.122Z,11.80
2017-11-16T12:24:34.645Z,11.20
2017-11-16T12:27:02.152Z,10.73
2017-11-16T12:29:29.725Z,11.60
2017-11-16T12:31:57.234Z,10.23
2017-11-16T12:34:24.748Z,12.27
2017-11-16T12:36:52.315Z,9.67
2017-11-16T12:39:19.820Z,11.40
2017-11-16T12:41:47.329Z,10.90
2017-11-16T12:44:14.868Z,11.50
2017-11-16T12:46:42.381Z,13.03
2017-11-16T12:49:10.648Z,11.50
2017-11-16T12:51:38.499Z,12.00
2017-11-16T12:54:07.374Z,10.93
2017-11-16T12:56:34.884Z,11.67
2017-11-16T12:59:03.517Z,12.97
2017-11-16T13:01:31.028Z,13.10
2017-11-16T13:03:58.549Z,12.60
2017-11-16T13:06:26.108Z,12.43
2017-11-16T13:08:53.706Z,12.63
2017-11-16T13:11:21.952Z,12.60
2017-11-16T13:13:49.456Z,12.37
2017-11-16T13:16:17.113Z,13.20
2017-11-16T13:18:44.626Z,11.23
2017-11-16T13:21:12.128Z,13.73
2017-11-16T13:23:39.528Z,10.70
2017-11-16T13:26:07.796Z,13.23
2017-11-16T13:28:35.305Z,12.40
2017-11-16T13:31:03.725Z,12.03
2017-11-16T13:33:31.245Z,13.50
2017-11-16T13:35:58.748Z,13.33
2017-11-16T13:38:26.295Z,13.07
2017-11-16T13:40:53.900Z,13.27
2017-11-16T13:43:21.407Z,14.80
2017-11-16T13:45:49.721Z,13.10
2017-11-16T13:48:17.229Z,11.23
2017-11-16T13:50:45.500Z,13.40
2017-11-16T13:53:13.819Z,15.07
2017-11-16T13:55:41.617Z,14.73
2017-11-16T13:58:09.757Z,13.47
2017-11-16T14:00:37.339Z,13.60
2017-11-16T14:03:04.858Z,13.10
2017-11-16T14:05:32.372Z,12.57
2017-11-16T14:07:59.921Z,13.90
2017-11-16T14:10:27.432Z,14.37
2017-11-16T14:12:54.956Z,13.87
2017-11-16T14:15:22.516Z,13.80
2017-11-16T14:17:50.788Z,14.80
2017-11-16T14:20:18.288Z,11.67
2017-11-16T14:22:45.844Z,13.90
2017-11-16T14:25:13.353Z,13.60
2017-11-16T14:27:40.860Z,14.83
2017-11-16T14:30:08.434Z,13.23
2017-11-16T14:32:35.943Z,12.50
2017-11-16T14:35:03.696Z,12.07
2017-11-16T14:37:31.261Z,11.97
2017-11-16T14:39:58.768Z,13.57
2017-11-16T14:42:26.276Z,12.37
2017-11-16T14:44:54.592Z,14.30
2017-11-16T14:47:22.103Z,12.33
2017-11-16T14:49:49.616Z,13.17
2017-11-16T14:52:17.188Z,13.83
2017-11-16T14:54:44.704Z,17.60
2017-11-16T14:57:12.215Z,18.10
2017-11-16T14:59:40.369Z,13.90
2017-11-16T15:02:07.885Z,12.73
2017-11-16T15:04:35.438Z,12.80
2017-11-16T15:07:03.028Z,13.90
2017-11-16T15:09:30.725Z,12.20
2017-11-16T15:11:58.345Z,14.40
2017-11-16T15:14:27.512Z,13.80
2017-11-16T15:16:55.020Z,14.13
2017-11-16T15:19:22.536Z,13.80
2017-11-16T15:21:50.369Z,13.27
2017-11-16T15:24:17.878Z,12.93
2017-11-16T15:26:46.153Z,13.50
2017-11-16T15:29:14.472Z,16.00
2017-11-16T15:31:41.989Z,14.10
2017-11-16T15:34:09.704Z,16.80
2017-11-16T15:36:37.285Z,15.30
2017-11-16T15:39:04.805Z,14.37
2017-11-16T15:41:32.336Z,14.23
2017-11-16T15:43:59.901Z,14.47
2017-11-16T15:46:27.425Z,14.30
2017-11-16T15:48:54.949Z,15.40
2017-11-16T15:51:22.632Z,15.73
2017-11-16T15:53:50.153Z,17.70
2017-11-16T15:56:17.673Z,15.97
2017-11-16T15:58:45.217Z,16.27
2017-11-16T16:01:12.745Z,15.23
2017-11-16T16:03:40.308Z,17.23
2017-11-16T16:06:07.820Z,16.60
2017-11-16T16:08:35.341Z,23.20
2017-11-16T16:11:02.933Z,22.37
2017-11-16T16:13:30.462Z,19.40
2017-11-16T16:15:58.759Z,18.00
2017-11-16T16:18:26.330Z,16.90
2017-11-16T16:20:53.853Z,18.43
2017-11-16T16:23:21.360Z,14.63
2017-11-16T16:25:48.921Z,15.30
2017-11-16T16:28:16.440Z,18.02
2017-11-16T16:30:43.949Z,16.90
2017-11-16T16:33:11.530Z,19.20
2017-11-16T16:35:39.032Z,18.73
2017-11-16T16:38:06.549Z,15.07
2017-11-16T16:40:34.199Z,15.27
2017-11-16T16:43:01.725Z,28.30
2017-11-16T16:45:29.241Z,26.57
2017-11-16T16:47:56.805Z,16.07
2017-11-16T16:50:24.319Z,20.47
2017-11-16T16:52:51.823Z,16.30
2017-11-16T16:55:19.360Z,16.97
2017-11-16T16:57:46.896Z,17.60
2017-11-16T17:00:14.554Z,13.30
2017-11-16T17:02:42.069Z,20.17
2017-11-16T17:05:10.336Z,19.03
2017-11-16T17:07:38.944Z,16.93
2017-11-16T17:10:06.459Z,15.10
2017-11-16T17:12:33.968Z,16.60
2017-11-16T17:15:01.537Z,16.33
2017-11-16T17:17:29.040Z,15.73
2017-11-16T17:19:56.552Z,15.67
2017-11-16T17:22:24.121Z,13.50
2017-11-16T17:24:51.628Z,15.53
2017-11-16T17:27:19.128Z,17.27
2017-11-16T17:29:46.688Z,20.20
2017-11-16T17:32:14.204Z,17.87
2017-11-16T17:34:41.722Z,17.27
2017-11-16T17:37:09.360Z,17.67
2017-11-16T17:39:36.864Z,18.33
2017-11-16T17:42:04.375Z,18.20
2017-11-16T17:44:33.115Z,16.00
2017-11-16T17:47:00.625Z,19.10
2017-11-16T17:49:28.124Z,18.03
2017-11-16T17:51:56.297Z,19.57
2017-11-16T17:54:23.813Z,26.60
2017-11-16T17:56:51.323Z,24.87
2017-11-16T17:59:19.107Z,16.67
2017-11-16T18:01:46.627Z,79.40
2017-11-16T18:04:14.132Z,35.07
2017-11-16T18:06:42.283Z,23.93
2017-11-16T18:09:10.680Z,18.40
2017-11-16T18:11:38.229Z,18.60
2017-11-16T18:14:05.748Z,16.57
2017-11-16T18:16:34.124Z,18.27
2017-11-16T18:19:01.660Z,36.38
2017-11-16T18:21:29.187Z,31.80
2017-11-16T18:23:57.348Z,70.27
2017-11-16T18:26:24.871Z,47.22
2017-11-16T18:28:52.397Z,22.10
2017-11-16T18:31:20.415Z,19.83
2017-11-16T18:33:47.928Z,18.10
2017-11-16T18:36:16.112Z,17.37
2017-11-16T18:38:43.682Z,17.10
2017-11-16T18:41:11.200Z,17.50
2017-11-16T18:43:38.726Z,14.50
2017-11-16T18:46:06.276Z,17.00
2017-11-16T18:48:33.813Z,16.30
2017-11-16T18:51:01.344Z,20.10
2017-11-16T18:53:28.911Z,17.70
2017-11-16T18:55:56.703Z,17.90
2017-11-16T18:58:24.234Z,17.35
2017-11-16T19:00:51.803Z,18.10
2017-11-16T19:03:19.328Z,16.83
2017-11-16T19:05:46.853Z,19.52
2017-11-16T19:08:14.429Z,19.65
2017-11-16T19:10:42.009Z,18.65
2017-11-16T19:13:10.624Z,21.55
2017-11-16T19:15:38.191Z,23.10
2017-11-16T19:18:05.692Z,20.47
2017-11-16T19:20:33.295Z,21.27
2017-11-16T19:23:01.028Z,23.13
2017-11-16T19:25:28.707Z,20.60
2017-11-16T19:27:56.823Z,21.97
2017-11-16T19:30:24.430Z,17.77
2017-11-16T19:32:52.457Z,16.33
2017-11-16T19:35:20.741Z,19.93
2017-11-16T19:37:48.259Z,17.95
2017-11-16T19:40:16.308Z,19.93
2017-11-16T19:42:43.860Z,16.87
2017-11-16T19:45:11.359Z,18.77
2017-11-16T19:47:39.260Z,19.30
2017-11-16T19:50:06.905Z,19.07
2017-11-16T19:52:34.827Z,18.50
2017-11-16T19:55:03.105Z,16.77
2017-11-16T19:57:30.903Z,18.53
2017-11-16T19:59:58.509Z,18.90
2017-11-16T20:02:26.796Z,17.83
2017-11-16T20:04:54.761Z,17.70
2017-11-16T20:07:22.620Z,17.73
2017-11-16T20:09:50.162Z,19.05
2017-11-16T20:12:17.711Z,18.97
2017-11-16T20:14:46.042Z,20.83
2017-11-16T20:17:13.560Z,18.70
2017-11-16T20:19:41.301Z,18.80
2017-11-16T20:22:08.901Z,19.92
2017-11-16T20:24:36.417Z,22.07
2017-11-16T20:27:03.940Z,18.52
2017-11-16T20:29:32.297Z,20.00
2017-11-16T20:31:59.855Z,20.55
2017-11-16T20:34:27.391Z,21.23
2017-11-16T20:37:00.562Z,22.10
2017-11-16T20:39:28.840Z,20.40
2017-11-16T20:55:30.764Z,20.35
2017-11-16T20:57:58.268Z,19.87
2017-11-16T21:00:25.781Z,19.43
2017-11-16T21:02:54.362Z,20.92
2017-11-16T21:05:21.879Z,19.55
2017-11-16T21:07:49.406Z,21.37
2017-11-16T21:10:16.979Z,20.60
2017-11-16T21:12:44.500Z,20.65
2017-11-16T21:15:12.189Z,22.77
2017-11-16T21:17:40.119Z,20.97
2017-11-16T21:20:07.697Z,19.33
2017-11-16T21:22:35.666Z,21.65
2017-11-16T21:25:03.319Z,20.43
2017-11-16T21:27:31.382Z,18.33
2017-11-16T21:29:59.472Z,22.80
2017-11-16T21:32:28.127Z,19.70
2017-11-16T21:34:56.157Z,21.87
2017-11-16T21:37:24.702Z,21.23
2017-11-16T21:39:52.754Z,20.53
2017-11-16T21:42:20.128Z,21.17
2017-11-16T21:44:48.688Z,25.08
2017-11-16T21:47:16.212Z,18.20
2017-11-16T21:49:43.779Z,20.27
2017-11-16T21:52:11.304Z,19.90
2017-11-16T21:54:38.827Z,17.43
2017-11-16T21:57:06.384Z,19.25
2017-11-16T21:59:33.896Z,20.77
2017-11-16T22:02:01.408Z,19.73
2017-11-16T22:04:29.676Z,20.90
2017-11-16T22:06:57.511Z,23.53
2017-11-16T22:09:25.037Z,20.70
2017-11-16T22:11:52.871Z,20.73
2017-11-16T22:14:20.384Z,21.77
2017-11-16T22:16:47.909Z,21.08
2017-11-16T22:19:15.472Z,20.13
2017-11-16T22:21:42.989Z,20.75
2017-11-16T22:24:10.488Z,21.77
2017-11-16T22:26:38.060Z,20.58
2017-11-16T22:29:05.595Z,21.48
2017-11-16T22:31:33.112Z,20.90
2017-11-16T22:34:00.688Z,21.30
2017-11-16T22:36:28.256Z,21.77
2017-11-16T22:38:55.776Z,24.37
2017-11-16T22:41:23.889Z,23.25
2017-11-16T22:43:51.436Z,21.10
2017-11-16T22:46:19.716Z,21.83
2017-11-16T22:48:47.548Z,25.98
2017-11-16T22:51:15.304Z,20.00
2017-11-16T22:53:42.825Z,20.42
2017-11-16T22:56:10.491Z,21.37
2017-11-16T22:58:38.004Z,21.37
2017-11-16T23:01:06.424Z,25.20
2017-11-16T23:03:34.397Z,21.37
2017-11-16T23:06:01.913Z,21.25
2017-11-16T23:08:30.452Z,24.17
2017-11-16T23:10:57.985Z,21.73
2017-11-16T23:13:25.491Z,22.33
2017-11-16T23:15:53.073Z,24.33
2017-11-16T23:18:20.592Z,22.77
2017-11-16T23:20:48.119Z,22.90
2017-11-16T23:23:15.686Z,23.87
2017-11-16T23:25:44.298Z,22.55
2017-11-16T23:28:12.228Z,24.52
2017-11-16T23:30:39.899Z,22.00
2017-11-16T23:33:07.415Z,23.85
2017-11-16T23:35:34.932Z,23.65
2017-11-16T23:38:02.507Z,22.55
2017-11-16T23:40:30.026Z,21.55
2017-11-16T23:42:58.143Z,23.02
2017-11-16T23:45:25.896Z,21.98
2017-11-16T23:47:53.403Z,23.58
2017-11-16T23:50:20.912Z,25.05
2017-11-16T23:52:48.474Z,23.58
2017-11-16T23:55:16.573Z,22.13
2017-11-16T23:57:44.094Z,23.95
